Startpagina
METAR-TAF:

METAR-TAF

Vliegvelden :

Aeroporto Humberto Delgado

Lissabon, Portugal

breedte: 38-46N, lengte: 009-08W, hoogte: 114 m

Actueel weer

Dit bericht is 15 minuten geleden gemaakt, om 03:30 UTC
Wind 6 kt uit het noordwesten
Temperatuur 9°C
Vochtigheid 76%
Druk 1030 hPa
Zicht 10 km of meer
geen wolken onder 1500 m en geen cumulonimbus

METAR: LPPT 190330Z 32006KT CAVOK 09/05 Q1030

Tijdstip: 03:45 (03:45 UTC)

Verwachting

Dit bericht is 4 uur en het 45 minuten geleden gemaakt, om 23:00 UTC
Verwachting geldig van 19 om 00 UTC tot 20 om 06 UTC
Wind 12 kt uit het noorden
Zicht 10 km of meer
geen wolken onder 1500 m en geen cumulonimbus
Wijzigt naar
van 19 om 03 UTC tot 19 om 06 UTC
Wind 10 kt uit het noordoosten
Wijzigt naar
van 19 om 18 UTC tot 19 om 20 UTC
Wind 7 kt uit het noorden
Wijzigt naar
van 19 om 21 UTC tot 19 om 24 UTC
Wind 7 kt uit het noordnoordoosten

TAF: LPPT 182300Z 1900/2006 35012KT CAVOK BECMG 1903/1906 04010KT BECMG 1918/1920 35007KT BECMG 1921/1924 03007KT

Waarnemingen en weersverwachtingen van meer dan 4000 vliegvelden (METAR en TAF).

De beschikbare stations zijn de gele en rode punten op de kaart.

Ga met uw muis naar het station om de naam te zien.

Klik dan om waarnemingen en weersverwachtingen te zien.

kaart wijzigen: klik op de groene knoppen met een zwart kruis om in te zoomen, op de groene knop met een streepje om uit te zoomen of op de groene pijlen voor aangrenzende kaarten.


METAR-TAF: